createdAt,value
2023-04-18T00:00:21.527Z,83.41
2023-04-18T00:03:23.986Z,83.34
2023-04-18T00:06:26.754Z,83.43
2023-04-18T00:09:28.738Z,83.44
2023-04-18T00:12:32.011Z,83.32
2023-04-18T00:15:35.583Z,83.38
2023-04-18T00:18:37.624Z,83.54
2023-04-18T00:21:45.046Z,83.51
2023-04-18T00:24:47.219Z,83.60
2023-04-18T00:27:49.425Z,83.84
2023-04-18T00:30:51.780Z,83.77
2023-04-18T00:33:53.701Z,84.06
2023-04-18T00:36:55.553Z,84.18
2023-04-18T00:39:57.881Z,84.48
2023-04-18T00:43:00.310Z,84.71
2023-04-18T00:46:02.217Z,84.68
2023-04-18T00:49:04.181Z,84.73
2023-04-18T00:52:06.591Z,85.05
2023-04-18T00:55:09.461Z,85.04
2023-04-18T00:58:12.179Z,85.32
2023-04-18T01:01:14.093Z,85.38
2023-04-18T01:04:16.358Z,85.60
2023-04-18T01:07:18.477Z,85.77
2023-04-18T01:10:20.681Z,85.87
2023-04-18T01:13:22.646Z,85.96
2023-04-18T01:16:24.702Z,85.93
2023-04-18T01:19:27.293Z,86.25
2023-04-18T01:22:31.497Z,86.02
2023-04-18T01:25:34.368Z,86.08
2023-04-18T01:28:37.304Z,86.20
2023-04-18T01:31:41.507Z,86.31
2023-04-18T01:34:43.732Z,86.21
2023-04-18T01:37:46.022Z,86.14
2023-04-18T01:40:48.130Z,86.06
2023-04-18T01:43:50.220Z,85.93
2023-04-18T01:46:52.174Z,85.95
2023-04-18T01:49:54.158Z,86.21
2023-04-18T01:52:56.145Z,86.30
2023-04-18T01:55:58.654Z,86.31
2023-04-18T01:59:00.563Z,86.23
2023-04-18T02:02:02.800Z,86.20
2023-04-18T02:05:05.116Z,86.26
2023-04-18T02:08:07.088Z,86.37
2023-04-18T02:11:08.996Z,86.53
2023-04-18T02:14:11.010Z,86.42
2023-04-18T02:17:12.876Z,86.41
2023-04-18T02:20:14.806Z,86.55
2023-04-18T02:23:16.833Z,86.53
2023-04-18T02:26:18.716Z,86.57
2023-04-18T02:29:21.163Z,86.76
2023-04-18T02:32:23.107Z,86.60
2023-04-18T02:35:26.202Z,86.88
2023-04-18T02:38:28.477Z,86.93
2023-04-18T02:41:31.286Z,86.96
2023-04-18T02:44:33.152Z,87.24
2023-04-18T02:47:46.939Z,87.40
2023-04-18T02:50:53.730Z,87.44
2023-04-18T02:53:56.350Z,87.83
2023-04-18T02:56:58.286Z,88.30
2023-04-18T03:00:00.242Z,88.42
2023-04-18T03:03:02.278Z,88.75
2023-04-18T03:06:04.469Z,88.88
2023-04-18T03:09:06.410Z,89.19
2023-04-18T03:12:08.490Z,89.40
2023-04-18T03:15:11.481Z,89.54
2023-04-18T03:18:13.823Z,89.74
2023-04-18T03:21:16.155Z,90.31
2023-04-18T03:24:18.400Z,90.52
2023-04-18T03:27:20.271Z,90.47
2023-04-18T03:30:22.628Z,90.59
2023-04-18T03:33:24.746Z,90.69
2023-04-18T03:36:28.766Z,90.88
2023-04-18T03:39:31.401Z,91.55
2023-04-18T03:42:33.329Z,91.49
2023-04-18T03:45:35.395Z,91.68
2023-04-18T03:48:37.575Z,91.68
2023-04-18T03:51:47.397Z,91.58
2023-04-18T03:54:49.322Z,91.57
2023-04-18T03:57:51.575Z,91.56
2023-04-18T04:00:53.693Z,91.48
2023-04-18T04:03:55.669Z,91.57
2023-04-18T04:06:58.190Z,91.48
2023-04-18T04:10:00.759Z,91.49
2023-04-18T04:13:02.896Z,91.72
2023-04-18T04:16:05.416Z,91.57
2023-04-18T04:19:07.347Z,91.73
2023-04-18T04:22:09.910Z,91.81
2023-04-18T04:25:13.898Z,91.89
2023-04-18T04:28:16.086Z,91.91
2023-04-18T04:31:18.842Z,91.82
2023-04-18T04:34:21.666Z,91.76
2023-04-18T04:37:23.881Z,91.96
2023-04-18T04:40:25.836Z,91.83
2023-04-18T04:43:28.910Z,91.79
2023-04-18T04:46:31.198Z,91.83
2023-04-18T04:49:33.088Z,91.68
2023-04-18T04:52:35.215Z,91.56
2023-04-18T04:55:38.641Z,91.53
2023-04-18T04:58:40.620Z,91.46
2023-04-18T05:01:45.627Z,91.21
2023-04-18T05:04:47.882Z,91.00
2023-04-18T05:07:49.929Z,90.76
2023-04-18T05:10:51.865Z,90.46
2023-04-18T05:13:53.866Z,90.31
2023-04-18T05:16:56.028Z,90.12
2023-04-18T05:19:58.026Z,90.08
2023-04-18T05:23:00.098Z,90.00
2023-04-18T05:26:02.003Z,89.93
2023-04-18T05:29:03.959Z,90.06
2023-04-18T05:32:09.040Z,90.23
2023-04-18T05:35:11.030Z,90.48
2023-04-18T05:38:13.162Z,90.53
2023-04-18T05:41:15.179Z,90.52
2023-04-18T05:44:18.302Z,90.47
2023-04-18T05:47:20.571Z,90.95
2023-04-18T05:50:23.291Z,90.73
2023-04-18T05:53:25.369Z,90.61
2023-04-18T05:56:27.445Z,90.60
2023-04-18T05:59:29.411Z,90.31
2023-04-18T06:02:31.679Z,90.25
2023-04-18T06:05:52.285Z,90.08
2023-04-18T06:08:54.810Z,89.79
2023-04-18T06:11:58.051Z,89.46
2023-04-18T06:15:00.176Z,89.31
2023-04-18T06:18:02.210Z,89.17
2023-04-18T06:21:04.347Z,89.04
2023-04-18T06:24:07.068Z,88.71
2023-04-18T06:27:17.532Z,88.72
2023-04-18T06:30:26.373Z,88.66
2023-04-18T06:33:28.349Z,88.52
2023-04-18T06:36:30.466Z,88.45
2023-04-18T06:39:32.382Z,88.50
2023-04-18T06:42:34.321Z,88.26
2023-04-18T06:45:36.393Z,88.02
2023-04-18T06:48:38.585Z,88.00
2023-04-18T06:51:40.935Z,88.20
2023-04-18T06:54:42.868Z,87.81
2023-04-18T06:57:44.957Z,87.76
2023-04-18T07:00:51.909Z,87.77
2023-04-18T07:03:54.038Z,87.66
2023-04-18T07:06:56.500Z,87.79
2023-04-18T07:09:58.754Z,87.82
2023-04-18T07:13:00.756Z,87.85
2023-04-18T07:16:03.356Z,87.89
2023-04-18T07:19:06.751Z,87.76
2023-04-18T07:22:08.894Z,87.59
2023-04-18T07:25:10.873Z,87.55
2023-04-18T07:28:12.826Z,87.42
2023-04-18T07:31:16.723Z,87.11
2023-04-18T07:34:18.846Z,86.74
2023-04-18T07:37:21.609Z,86.67
2023-04-18T07:40:23.597Z,86.21
2023-04-18T07:43:26.517Z,85.99
2023-04-18T07:46:29.028Z,85.98
2023-04-18T07:49:31.035Z,85.97
2023-04-18T07:52:33.248Z,86.03
2023-04-18T07:55:35.390Z,86.03
2023-04-18T07:58:37.572Z,86.10
2023-04-18T08:01:39.660Z,85.86
2023-04-18T08:04:41.820Z,85.73
2023-04-18T08:07:43.780Z,85.40
2023-04-18T08:10:45.740Z,85.07
2023-04-18T08:13:47.697Z,85.33
2023-04-18T08:16:49.661Z,85.21
2023-04-18T08:19:51.748Z,84.67
2023-04-18T08:23:06.110Z,84.10
2023-04-18T08:26:10.730Z,83.65
2023-04-18T08:29:13.163Z,82.61
2023-04-18T08:32:15.307Z,81.96
2023-04-18T08:35:17.445Z,82.76
2023-04-18T08:38:21.352Z,82.43
2023-04-18T08:41:24.212Z,82.98
2023-04-18T08:44:29.580Z,84.33
2023-04-18T08:47:31.963Z,84.54
2023-04-18T08:50:34.172Z,84.10
2023-04-18T08:53:36.191Z,84.64
2023-04-18T08:56:38.117Z,85.37
2023-04-18T08:59:43.133Z,85.05
2023-04-18T09:02:46.952Z,85.07
2023-04-18T09:06:08.540Z,85.18
2023-04-18T09:09:10.666Z,85.62
2023-04-18T09:12:15.031Z,86.53
2023-04-18T09:15:23.811Z,86.65
2023-04-18T09:18:25.778Z,86.60
2023-04-18T09:21:28.090Z,86.64
2023-04-18T09:24:32.535Z,86.35
2023-04-18T09:27:35.157Z,86.37
2023-04-18T09:30:41.219Z,86.22
2023-04-18T09:33:54.563Z,86.32
2023-04-18T09:37:13.984Z,85.65
2023-04-18T09:40:20.475Z,85.14
2023-04-18T09:43:22.543Z,84.84
2023-04-18T09:46:25.903Z,84.77
2023-04-18T09:49:28.464Z,84.87
2023-04-18T09:52:39.690Z,84.89
2023-04-18T09:55:42.843Z,85.10
2023-04-18T09:58:47.471Z,86.00
2023-04-18T10:01:50.957Z,86.56
2023-04-18T10:04:54.928Z,87.19
2023-04-18T10:07:57.575Z,87.36
2023-04-18T10:10:59.559Z,88.06
2023-04-18T10:14:04.570Z,88.39
2023-04-18T10:17:06.997Z,89.02
2023-04-18T10:20:12.722Z,88.87
2023-04-18T10:23:36.268Z,88.63
2023-04-18T10:26:47.276Z,88.58
2023-04-18T10:29:54.010Z,88.92
2023-04-18T10:32:56.209Z,89.00
2023-04-18T10:36:01.699Z,90.17
2023-04-18T10:39:23.784Z,89.78
2023-04-18T10:42:47.473Z,89.28
2023-04-18T10:46:17.377Z,89.66
2023-04-18T10:49:33.532Z,89.73
2023-04-18T10:52:35.617Z,89.51
2023-04-18T10:55:42.732Z,89.37
2023-04-18T10:58:51.195Z,88.92
2023-04-18T11:01:57.260Z,88.37
2023-04-18T11:05:01.709Z,88.46
2023-04-18T11:08:03.812Z,88.50
2023-04-18T11:11:09.508Z,88.47
2023-04-18T11:14:11.862Z,88.57
2023-04-18T11:17:17.907Z,88.20
2023-04-18T11:20:20.019Z,88.58
2023-04-18T11:23:25.580Z,88.72
2023-04-18T11:26:27.659Z,88.27
2023-04-18T11:29:29.719Z,88.66
2023-04-18T11:32:34.600Z,88.97
2023-04-18T11:35:43.992Z,88.35
2023-04-18T11:38:46.252Z,88.45
2023-04-18T11:41:51.256Z,89.51
2023-04-18T11:44:53.312Z,89.41
2023-04-18T11:47:59.901Z,89.06
2023-04-18T11:51:01.871Z,88.77
2023-04-18T11:54:04.012Z,89.16
2023-04-18T11:57:07.615Z,89.45
2023-04-18T12:00:12.415Z,89.20
2023-04-18T12:03:16.787Z,89.09
2023-04-18T12:06:19.035Z,88.73
2023-04-18T12:09:22.568Z,88.53
2023-04-18T12:12:24.519Z,88.90
2023-04-18T12:15:28.709Z,88.45
2023-04-18T12:18:31.608Z,88.02
2023-04-18T12:21:33.755Z,87.48
2023-04-18T12:24:36.191Z,87.38
2023-04-18T12:27:52.557Z,87.48
2023-04-18T12:30:54.553Z,87.36
2023-04-18T12:34:00.097Z,87.11
2023-04-18T12:37:03.692Z,86.93
2023-04-18T12:40:07.285Z,87.23
2023-04-18T12:43:09.760Z,87.43
2023-04-18T12:46:11.690Z,87.44
2023-04-18T12:49:13.647Z,87.59
2023-04-18T12:52:16.293Z,87.65
2023-04-18T12:55:18.318Z,88.01
2023-04-18T12:58:20.883Z,87.78
2023-04-18T13:01:23.010Z,87.64
2023-04-18T13:04:25.550Z,87.48
2023-04-18T13:07:27.633Z,87.28
2023-04-18T13:10:29.667Z,86.39
2023-04-18T13:13:33.395Z,86.16
2023-04-18T13:16:36.555Z,85.96
2023-04-18T13:19:38.557Z,85.17
2023-04-18T13:22:41.961Z,84.71
2023-04-18T13:25:44.301Z,84.00
2023-04-18T13:28:46.613Z,83.06
2023-04-18T13:31:48.744Z,82.42
2023-04-18T13:34:51.312Z,81.42
2023-04-18T13:37:53.291Z,81.57
2023-04-18T13:41:08.484Z,81.18
2023-04-18T13:44:13.324Z,80.70
2023-04-18T13:47:15.256Z,80.66
2023-04-18T13:50:17.507Z,79.87
2023-04-18T13:53:21.040Z,80.02
2023-04-18T13:56:23.032Z,80.41
2023-04-18T13:59:25.857Z,80.11
2023-04-18T14:02:28.435Z,79.69
2023-04-18T14:05:31.971Z,79.77
2023-04-18T14:08:33.849Z,79.80
2023-04-18T14:11:35.875Z,79.36
2023-04-18T14:14:37.904Z,79.60
2023-04-18T14:17:39.874Z,79.32
2023-04-18T14:20:41.912Z,79.35
2023-04-18T14:23:43.881Z,79.07
2023-04-18T14:26:45.751Z,78.50
2023-04-18T14:29:48.979Z,78.58
2023-04-18T14:32:50.989Z,78.29
2023-04-18T14:35:53.030Z,77.93
2023-04-18T14:38:55.227Z,77.36
2023-04-18T14:41:58.047Z,76.93
2023-04-18T14:45:00.284Z,76.58
2023-04-18T14:48:02.450Z,75.95
2023-04-18T14:51:04.682Z,75.89
2023-04-18T14:54:06.677Z,75.72
2023-04-18T14:57:10.249Z,76.02
2023-04-18T15:00:14.661Z,76.43
2023-04-18T15:03:17.230Z,76.60
2023-04-18T15:06:19.509Z,76.73
2023-04-18T15:09:25.232Z,76.23
2023-04-18T15:12:27.381Z,76.74
2023-04-18T15:15:30.659Z,76.26
2023-04-18T15:18:32.664Z,76.12
2023-04-18T15:21:34.622Z,76.28
2023-04-18T15:24:37.379Z,76.24
2023-04-18T15:27:39.251Z,76.32
2023-04-18T15:30:41.471Z,76.18
2023-04-18T15:33:43.472Z,76.93
2023-04-18T15:36:47.356Z,77.29
2023-04-18T15:39:49.315Z,78.67
2023-04-18T15:42:53.889Z,80.30
2023-04-18T15:45:55.853Z,80.48
2023-04-18T15:48:58.020Z,80.69
2023-04-18T15:52:00.312Z,80.78
2023-04-18T15:55:02.428Z,80.70
2023-04-18T15:58:05.120Z,80.87
2023-04-18T16:01:07.818Z,82.03
2023-04-18T16:04:09.904Z,82.80
2023-04-18T16:07:12.196Z,83.07
2023-04-18T16:10:15.401Z,83.38
2023-04-18T16:13:17.424Z,83.30
2023-04-18T16:16:19.425Z,83.59
2023-04-18T16:19:21.329Z,83.09
2023-04-18T16:22:23.377Z,83.21
2023-04-18T16:25:25.654Z,83.09
2023-04-18T16:28:27.565Z,83.22
2023-04-18T16:31:29.659Z,83.09
2023-04-18T16:34:32.457Z,83.18
2023-04-18T16:37:34.410Z,82.73
2023-04-18T16:40:36.521Z,82.73
2023-04-18T16:43:38.748Z,82.62
2023-04-18T16:46:40.815Z,82.79
2023-04-18T16:49:44.940Z,82.88
2023-04-18T16:52:47.194Z,82.94
2023-04-18T16:55:53.235Z,83.01
2023-04-18T16:58:55.513Z,83.41
2023-04-18T17:01:59.807Z,83.42
2023-04-18T17:05:02.668Z,83.65
2023-04-18T17:08:05.542Z,83.65
2023-04-18T17:11:07.987Z,83.68
2023-04-18T17:14:10.549Z,83.82
2023-04-18T17:17:12.961Z,83.79
2023-04-18T17:20:16.266Z,83.78
2023-04-18T17:23:18.399Z,83.82
2023-04-18T17:26:21.828Z,83.79
2023-04-18T17:29:26.138Z,83.93
2023-04-18T17:32:29.190Z,83.99
2023-04-18T17:35:31.139Z,84.26
2023-04-18T17:38:33.299Z,84.29
2023-04-18T17:41:37.887Z,84.69
2023-04-18T17:44:40.357Z,84.73
2023-04-18T17:47:43.774Z,85.02
2023-04-18T17:50:46.295Z,85.00
2023-04-18T17:53:48.579Z,85.16
2023-04-18T17:56:51.476Z,85.31
2023-04-18T17:59:54.438Z,85.57
2023-04-18T18:02:57.751Z,85.76
2023-04-18T18:06:00.439Z,85.91
2023-04-18T18:09:03.381Z,86.36
2023-04-18T18:12:06.496Z,86.57
2023-04-18T18:15:09.991Z,86.65
2023-04-18T18:18:12.561Z,86.63
2023-04-18T18:21:15.518Z,86.75
2023-04-18T18:24:19.280Z,86.72
2023-04-18T18:27:23.207Z,86.49
2023-04-18T18:30:26.548Z,86.49
2023-04-18T18:33:29.324Z,86.37
2023-04-18T18:36:31.732Z,86.39
2023-04-18T18:39:34.484Z,86.56
2023-04-18T18:42:37.575Z,86.55
2023-04-18T18:45:40.418Z,86.41
2023-04-18T18:48:43.514Z,86.27
2023-04-18T18:51:47.090Z,86.23
2023-04-18T18:54:51.688Z,86.17
2023-04-18T18:57:54.334Z,86.12
2023-04-18T19:00:57.502Z,85.82
2023-04-18T19:03:59.959Z,85.43
2023-04-18T19:07:02.708Z,85.33
2023-04-18T19:10:07.164Z,85.24
2023-04-18T19:13:11.774Z,85.25
2023-04-18T19:16:14.274Z,85.23
2023-04-18T19:19:18.014Z,85.29
2023-04-18T19:22:21.355Z,85.27
2023-04-18T19:25:24.510Z,85.44
2023-04-18T19:28:27.531Z,85.53
2023-04-18T19:31:30.905Z,85.68
2023-04-18T19:34:36.677Z,85.85
2023-04-18T19:37:40.916Z,86.02
2023-04-18T19:40:43.992Z,86.06
2023-04-18T19:43:46.801Z,86.32
2023-04-18T19:46:50.006Z,86.54
2023-04-18T19:49:52.843Z,86.79
2023-04-18T19:52:56.877Z,86.93
2023-04-18T19:55:59.588Z,87.12
2023-04-18T19:59:02.289Z,87.44
2023-04-18T20:02:06.581Z,87.55
2023-04-18T20:05:10.182Z,87.78
2023-04-18T20:08:13.004Z,88.18
2023-04-18T20:11:15.300Z,88.33
2023-04-18T20:14:18.607Z,88.50
2023-04-18T20:17:21.804Z,88.51
2023-04-18T20:20:24.393Z,88.45
2023-04-18T20:23:27.179Z,88.70
2023-04-18T20:26:29.877Z,88.35
2023-04-18T20:29:32.330Z,88.30
2023-04-18T20:32:35.201Z,88.33
2023-04-18T20:35:38.280Z,88.97
2023-04-18T20:38:41.269Z,89.20
2023-04-18T20:41:46.957Z,88.75
2023-04-18T20:44:51.943Z,88.52
2023-04-18T20:47:54.133Z,88.82
2023-04-18T20:50:56.985Z,89.24
2023-04-18T20:53:59.643Z,89.38
2023-04-18T20:57:02.867Z,89.49
2023-04-18T21:00:08.660Z,90.25
2023-04-18T21:03:14.499Z,89.78
2023-04-18T21:06:19.264Z,89.79
2023-04-18T21:09:21.622Z,89.43
2023-04-18T21:12:23.971Z,89.33
2023-04-18T21:15:26.383Z,89.04
2023-04-18T21:18:29.530Z,88.49
2023-04-18T21:21:31.700Z,88.26
2023-04-18T21:24:33.804Z,87.89
2023-04-18T21:27:35.998Z,87.50
2023-04-18T21:30:38.007Z,87.18
2023-04-18T21:33:39.962Z,86.80
2023-04-18T21:36:41.894Z,86.92
2023-04-18T21:39:44.316Z,87.33
2023-04-18T21:42:47.756Z,88.01
2023-04-18T21:45:51.440Z,87.89
2023-04-18T21:48:53.596Z,88.35
2023-04-18T21:51:55.719Z,88.50
2023-04-18T21:54:59.253Z,89.28
2023-04-18T21:58:01.213Z,89.86
2023-04-18T22:01:03.405Z,90.16
2023-04-18T22:04:06.208Z,90.81
2023-04-18T22:07:09.324Z,90.88
2023-04-18T22:10:12.018Z,91.16
2023-04-18T22:13:13.947Z,91.27
2023-04-18T22:16:17.620Z,91.97
2023-04-18T22:19:20.338Z,92.38
2023-04-18T22:22:22.450Z,92.26
2023-04-18T22:25:24.388Z,92.30
2023-04-18T22:28:28.101Z,92.55
2023-04-18T22:31:30.297Z,92.86
2023-04-18T22:34:32.204Z,93.16
2023-04-18T22:37:34.159Z,93.13
2023-04-18T22:40:36.204Z,93.69
2023-04-18T22:43:38.172Z,93.78
2023-04-18T22:46:40.909Z,93.97
2023-04-18T22:49:42.904Z,93.97
2023-04-18T22:52:45.219Z,93.95
2023-04-18T22:55:47.126Z,94.21
2023-04-18T22:58:49.157Z,93.86
2023-04-18T23:01:51.085Z,93.72
2023-04-18T23:04:53.415Z,93.89
2023-04-18T23:07:56.525Z,94.05
2023-04-18T23:10:59.753Z,93.91
2023-04-18T23:14:02.372Z,94.05
2023-04-18T23:17:04.443Z,94.04
2023-04-18T23:20:10.934Z,93.88
2023-04-18T23:23:13.059Z,93.81
2023-04-18T23:26:15.832Z,93.36
2023-04-18T23:29:18.337Z,93.15
2023-04-18T23:32:20.299Z,92.92
2023-04-18T23:35:22.455Z,92.48
2023-04-18T23:38:25.008Z,92.14
2023-04-18T23:45:06.097Z,91.40
2023-04-18T23:48:08.079Z,91.20
2023-04-18T23:51:10.124Z,90.95
2023-04-18T23:54:31.200Z,90.75
2023-04-18T23:57:33.144Z,90.51
